sensor_id;sensor_type;location;lat;lon;timestamp;P1;durP1;ratioP1;P2;durP2;ratioP2
42514;SDS011;28144;49.920;18.730;2022-10-16T00:01:45;18.15;;;11.05;;
42514;SDS011;28144;49.920;18.730;2022-10-16T00:04:12;21.73;;;11.35;;
42514;SDS011;28144;49.920;18.730;2022-10-16T00:06:38;22.05;;;11.98;;
42514;SDS011;28144;49.920;18.730;2022-10-16T00:09:04;16.30;;;12.27;;
42514;SDS011;28144;49.920;18.730;2022-10-16T00:11:31;20.52;;;12.63;;
42514;SDS011;28144;49.920;18.730;2022-10-16T00:14:02;20.17;;;11.50;;
42514;SDS011;28144;49.920;18.730;2022-10-16T00:16:30;19.55;;;12.63;;
42514;SDS011;28144;49.920;18.730;2022-10-16T00:18:56;19.65;;;12.15;;
42514;SDS011;28144;49.920;18.730;2022-10-16T00:21:23;17.50;;;12.18;;
42514;SDS011;28144;49.920;18.730;2022-10-16T00:24:00;17.02;;;12.15;;
42514;SDS011;28144;49.920;18.730;2022-10-16T00:26:29;22.92;;;13.07;;
42514;SDS011;28144;49.920;18.730;2022-10-16T00:28:55;22.23;;;13.70;;
42514;SDS011;28144;49.920;18.730;2022-10-16T00:31:21;23.93;;;13.53;;
42514;SDS011;28144;49.920;18.730;2022-10-16T00:33:47;24.50;;;13.77;;
42514;SDS011;28144;49.920;18.730;2022-10-16T00:36:14;24.90;;;14.35;;
42514;SDS011;28144;49.920;18.730;2022-10-16T00:38:41;21.33;;;13.07;;
42514;SDS011;28144;49.920;18.730;2022-10-16T00:41:09;20.53;;;12.67;;
42514;SDS011;28144;49.920;18.730;2022-10-16T00:43:42;17.63;;;12.10;;
42514;SDS011;28144;49.920;18.730;2022-10-16T00:46:19;21.70;;;12.20;;
42514;SDS011;28144;49.920;18.730;2022-10-16T00:51:28;19.23;;;12.38;;
42514;SDS011;28144;49.920;18.730;2022-10-16T00:53:56;17.45;;;12.07;;
42514;SDS011;28144;49.920;18.730;2022-10-16T00:56:22;21.13;;;12.60;;
42514;SDS011;28144;49.920;18.730;2022-10-16T00:58:48;18.97;;;12.50;;
42514;SDS011;28144;49.920;18.730;2022-10-16T01:01:13;16.47;;;12.07;;
42514;SDS011;28144;49.920;18.730;2022-10-16T01:03:39;16.90;;;11.47;;
42514;SDS011;28144;49.920;18.730;2022-10-16T01:06:24;22.90;;;14.60;;
42514;SDS011;28144;49.920;18.730;2022-10-16T01:12:15;20.20;;;13.20;;
42514;SDS011;28144;49.920;18.730;2022-10-16T01:14:53;21.80;;;13.38;;
42514;SDS011;28144;49.920;18.730;2022-10-16T01:17:21;24.83;;;13.65;;
42514;SDS011;28144;49.920;18.730;2022-10-16T01:22:21;16.33;;;11.93;;
42514;SDS011;28144;49.920;18.730;2022-10-16T01:24:50;20.35;;;12.55;;
42514;SDS011;28144;49.920;18.730;2022-10-16T01:37:53;23.02;;;14.93;;
42514;SDS011;28144;49.920;18.730;2022-10-16T01:40:24;29.05;;;14.13;;
42514;SDS011;28144;49.920;18.730;2022-10-16T01:45:54;16.02;;;12.10;;
42514;SDS011;28144;49.920;18.730;2022-10-16T01:48:20;19.25;;;12.90;;
42514;SDS011;28144;49.920;18.730;2022-10-16T01:50:56;18.10;;;12.77;;
42514;SDS011;28144;49.920;18.730;2022-10-16T01:53:25;20.17;;;12.82;;
42514;SDS011;28144;49.920;18.730;2022-10-16T01:55:51;22.07;;;13.37;;
42514;SDS011;28144;49.920;18.730;2022-10-16T02:00:44;17.33;;;13.40;;
42514;SDS011;28144;49.920;18.730;2022-10-16T02:03:11;35.95;;;18.10;;
42514;SDS011;28144;49.920;18.730;2022-10-16T02:05:40;31.38;;;17.38;;
42514;SDS011;28144;49.920;18.730;2022-10-16T02:08:07;26.17;;;15.48;;
42514;SDS011;28144;49.920;18.730;2022-10-16T02:10:34;19.10;;;13.27;;
42514;SDS011;28144;49.920;18.730;2022-10-16T02:13:03;21.13;;;11.95;;
42514;SDS011;28144;49.920;18.730;2022-10-16T02:15:30;17.75;;;12.35;;
42514;SDS011;28144;49.920;18.730;2022-10-16T02:17:55;19.53;;;14.33;;
42514;SDS011;28144;49.920;18.730;2022-10-16T02:20:22;18.17;;;12.53;;
42514;SDS011;28144;49.920;18.730;2022-10-16T02:22:51;16.67;;;13.07;;
42514;SDS011;28144;49.920;18.730;2022-10-16T02:25:19;24.45;;;14.40;;
42514;SDS011;28144;49.920;18.730;2022-10-16T02:30:30;21.92;;;12.98;;
42514;SDS011;28144;49.920;18.730;2022-10-16T02:33:00;21.13;;;14.15;;
42514;SDS011;28144;49.920;18.730;2022-10-16T02:35:28;27.27;;;16.17;;
42514;SDS011;28144;49.920;18.730;2022-10-16T02:37:55;23.65;;;15.70;;
42514;SDS011;28144;49.920;18.730;2022-10-16T02:40:21;29.35;;;18.80;;
42514;SDS011;28144;49.920;18.730;2022-10-16T02:42:49;25.53;;;19.83;;
42514;SDS011;28144;49.920;18.730;2022-10-16T02:45:16;27.17;;;17.25;;
42514;SDS011;28144;49.920;18.730;2022-10-16T02:47:42;20.67;;;15.00;;
42514;SDS011;28144;49.920;18.730;2022-10-16T02:50:08;28.40;;;17.83;;
42514;SDS011;28144;49.920;18.730;2022-10-16T02:52:34;18.37;;;13.33;;
42514;SDS011;28144;49.920;18.730;2022-10-16T02:54:59;24.13;;;15.50;;
42514;SDS011;28144;49.920;18.730;2022-10-16T02:57:25;28.87;;;16.53;;
42514;SDS011;28144;49.920;18.730;2022-10-16T02:59:51;24.83;;;14.97;;
42514;SDS011;28144;49.920;18.730;2022-10-16T03:02:17;29.97;;;19.77;;
42514;SDS011;28144;49.920;18.730;2022-10-16T03:04:42;31.33;;;19.60;;
42514;SDS011;28144;49.920;18.730;2022-10-16T03:07:08;22.33;;;16.77;;
42514;SDS011;28144;49.920;18.730;2022-10-16T03:09:34;29.37;;;17.90;;
42514;SDS011;28144;49.920;18.730;2022-10-16T03:11:59;25.13;;;17.20;;
42514;SDS011;28144;49.920;18.730;2022-10-16T03:14:25;23.93;;;16.67;;
42514;SDS011;28144;49.920;18.730;2022-10-16T03:16:51;23.83;;;16.43;;
42514;SDS011;28144;49.920;18.730;2022-10-16T03:19:17;23.88;;;16.65;;
42514;SDS011;28144;49.920;18.730;2022-10-16T03:21:43;29.33;;;18.50;;
42514;SDS011;28144;49.920;18.730;2022-10-16T03:24:09;27.63;;;18.93;;
42514;SDS011;28144;49.920;18.730;2022-10-16T03:26:35;25.17;;;16.27;;
42514;SDS011;28144;49.920;18.730;2022-10-16T03:29:01;26.55;;;16.55;;
42514;SDS011;28144;49.920;18.730;2022-10-16T03:31:31;29.42;;;19.50;;
42514;SDS011;28144;49.920;18.730;2022-10-16T03:33:57;56.55;;;28.85;;
42514;SDS011;28144;49.920;18.730;2022-10-16T03:36:23;64.43;;;33.37;;
42514;SDS011;28144;49.920;18.730;2022-10-16T03:38:48;38.40;;;23.40;;
42514;SDS011;28144;49.920;18.730;2022-10-16T03:41:14;33.57;;;20.77;;
42514;SDS011;28144;49.920;18.730;2022-10-16T03:43:40;26.40;;;16.70;;
42514;SDS011;28144;49.920;18.730;2022-10-16T03:46:05;37.10;;;20.53;;
42514;SDS011;28144;49.920;18.730;2022-10-16T03:48:31;36.50;;;23.83;;
42514;SDS011;28144;49.920;18.730;2022-10-16T03:50:57;36.35;;;23.00;;
42514;SDS011;28144;49.920;18.730;2022-10-16T03:53:23;41.60;;;23.63;;
42514;SDS011;28144;49.920;18.730;2022-10-16T03:55:49;30.52;;;18.67;;
42514;SDS011;28144;49.920;18.730;2022-10-16T03:58:15;21.33;;;13.70;;
42514;SDS011;28144;49.920;18.730;2022-10-16T04:00:41;24.30;;;14.70;;
42514;SDS011;28144;49.920;18.730;2022-10-16T04:05:33;18.40;;;13.90;;
42514;SDS011;28144;49.920;18.730;2022-10-16T04:07:59;18.73;;;14.03;;
42514;SDS011;28144;49.920;18.730;2022-10-16T04:10:25;27.33;;;17.37;;
42514;SDS011;28144;49.920;18.730;2022-10-16T04:12:50;18.03;;;14.57;;
42514;SDS011;28144;49.920;18.730;2022-10-16T04:15:16;66.17;;;39.83;;
42514;SDS011;28144;49.920;18.730;2022-10-16T04:17:41;65.63;;;36.50;;
42514;SDS011;28144;49.920;18.730;2022-10-16T04:20:07;44.20;;;26.90;;
42514;SDS011;28144;49.920;18.730;2022-10-16T04:22:33;28.83;;;18.50;;
42514;SDS011;28144;49.920;18.730;2022-10-16T04:24:59;26.17;;;14.73;;
42514;SDS011;28144;49.920;18.730;2022-10-16T04:27:24;25.10;;;15.37;;
42514;SDS011;28144;49.920;18.730;2022-10-16T04:29:50;27.10;;;15.70;;
42514;SDS011;28144;49.920;18.730;2022-10-16T04:32:16;22.00;;;13.57;;
42514;SDS011;28144;49.920;18.730;2022-10-16T04:34:41;19.50;;;13.53;;
42514;SDS011;28144;49.920;18.730;2022-10-16T04:37:07;21.73;;;12.63;;
42514;SDS011;28144;49.920;18.730;2022-10-16T04:39:33;25.67;;;13.37;;
42514;SDS011;28144;49.920;18.730;2022-10-16T04:41:58;18.13;;;11.67;;
42514;SDS011;28144;49.920;18.730;2022-10-16T04:44:24;18.07;;;11.40;;
42514;SDS011;28144;49.920;18.730;2022-10-16T04:46:50;23.73;;;11.43;;
42514;SDS011;28144;49.920;18.730;2022-10-16T04:49:16;14.30;;;10.73;;
42514;SDS011;28144;49.920;18.730;2022-10-16T04:51:42;15.63;;;10.40;;
42514;SDS011;28144;49.920;18.730;2022-10-16T04:54:08;18.03;;;10.87;;
42514;SDS011;28144;49.920;18.730;2022-10-16T04:56:34;14.00;;;10.10;;
42514;SDS011;28144;49.920;18.730;2022-10-16T04:59:05;62.10;;;37.80;;
42514;SDS011;28144;49.920;18.730;2022-10-16T05:01:31;19.77;;;13.97;;
42514;SDS011;28144;49.920;18.730;2022-10-16T05:03:56;22.87;;;14.20;;
42514;SDS011;28144;49.920;18.730;2022-10-16T05:06:22;29.13;;;16.63;;
42514;SDS011;28144;49.920;18.730;2022-10-16T05:08:48;21.10;;;13.57;;
42514;SDS011;28144;49.920;18.730;2022-10-16T05:11:13;19.73;;;12.77;;
42514;SDS011;28144;49.920;18.730;2022-10-16T05:13:39;27.50;;;16.13;;
42514;SDS011;28144;49.920;18.730;2022-10-16T05:16:05;25.23;;;14.27;;
42514;SDS011;28144;49.920;18.730;2022-10-16T05:18:31;19.08;;;10.82;;
42514;SDS011;28144;49.920;18.730;2022-10-16T05:20:56;17.00;;;10.60;;
42514;SDS011;28144;49.920;18.730;2022-10-16T05:23:22;20.63;;;13.93;;
42514;SDS011;28144;49.920;18.730;2022-10-16T05:25:52;18.37;;;11.83;;
42514;SDS011;28144;49.920;18.730;2022-10-16T05:28:19;17.42;;;11.57;;
42514;SDS011;28144;49.920;18.730;2022-10-16T05:30:45;16.20;;;10.57;;
42514;SDS011;28144;49.920;18.730;2022-10-16T05:33:11;21.43;;;10.23;;
42514;SDS011;28144;49.920;18.730;2022-10-16T05:35:36;18.47;;;11.23;;
42514;SDS011;28144;49.920;18.730;2022-10-16T05:38:02;21.47;;;11.57;;
42514;SDS011;28144;49.920;18.730;2022-10-16T05:40:27;22.97;;;15.87;;
42514;SDS011;28144;49.920;18.730;2022-10-16T05:42:56;23.57;;;12.27;;
42514;SDS011;28144;49.920;18.730;2022-10-16T05:45:22;16.00;;;10.20;;
42514;SDS011;28144;49.920;18.730;2022-10-16T05:47:48;18.13;;;10.57;;
42514;SDS011;28144;49.920;18.730;2022-10-16T05:50:13;25.93;;;11.00;;
42514;SDS011;28144;49.920;18.730;2022-10-16T05:52:39;14.32;;;10.48;;
42514;SDS011;28144;49.920;18.730;2022-10-16T05:55:05;16.33;;;9.80;;
42514;SDS011;28144;49.920;18.730;2022-10-16T05:57:31;20.13;;;13.45;;
42514;SDS011;28144;49.920;18.730;2022-10-16T05:59:57;16.17;;;10.47;;
42514;SDS011;28144;49.920;18.730;2022-10-16T06:02:23;43.13;;;24.13;;
42514;SDS011;28144;49.920;18.730;2022-10-16T06:04:48;37.83;;;22.00;;
42514;SDS011;28144;49.920;18.730;2022-10-16T06:07:14;19.63;;;11.90;;
42514;SDS011;28144;49.920;18.730;2022-10-16T06:09:39;28.57;;;14.20;;
42514;SDS011;28144;49.920;18.730;2022-10-16T06:12:05;43.70;;;26.70;;
42514;SDS011;28144;49.920;18.730;2022-10-16T06:14:31;24.00;;;15.30;;
42514;SDS011;28144;49.920;18.730;2022-10-16T06:16:57;30.73;;;18.38;;
42514;SDS011;28144;49.920;18.730;2022-10-16T06:19:22;16.03;;;12.27;;
42514;SDS011;28144;49.920;18.730;2022-10-16T06:21:48;19.25;;;13.55;;
42514;SDS011;28144;49.920;18.730;2022-10-16T06:24:14;22.93;;;11.13;;
42514;SDS011;28144;49.920;18.730;2022-10-16T06:26:39;18.77;;;10.10;;
42514;SDS011;28144;49.920;18.730;2022-10-16T06:29:05;23.13;;;13.40;;
42514;SDS011;28144;49.920;18.730;2022-10-16T06:31:31;13.40;;;10.20;;
42514;SDS011;28144;49.920;18.730;2022-10-16T06:33:58;19.35;;;12.13;;
42514;SDS011;28144;49.920;18.730;2022-10-16T06:36:24;26.45;;;15.63;;
42514;SDS011;28144;49.920;18.730;2022-10-16T06:38:50;26.60;;;13.85;;
42514;SDS011;28144;49.920;18.730;2022-10-16T06:41:17;22.87;;;12.70;;
42514;SDS011;28144;49.920;18.730;2022-10-16T06:43:44;25.33;;;12.55;;
42514;SDS011;28144;49.920;18.730;2022-10-16T06:46:11;19.60;;;11.98;;
42514;SDS011;28144;49.920;18.730;2022-10-16T06:48:38;15.38;;;9.25;;
42514;SDS011;28144;49.920;18.730;2022-10-16T06:53:35;30.20;;;14.75;;
42514;SDS011;28144;49.920;18.730;2022-10-16T06:58:37;16.40;;;10.05;;
42514;SDS011;28144;49.920;18.730;2022-10-16T07:01:05;17.15;;;8.75;;
42514;SDS011;28144;49.920;18.730;2022-10-16T07:03:31;16.65;;;9.27;;
42514;SDS011;28144;49.920;18.730;2022-10-16T07:05:57;13.85;;;8.02;;
42514;SDS011;28144;49.920;18.730;2022-10-16T07:08:26;15.75;;;8.00;;
42514;SDS011;28144;49.920;18.730;2022-10-16T07:11:01;13.83;;;7.90;;
42514;SDS011;28144;49.920;18.730;2022-10-16T07:13:28;41.67;;;22.63;;
42514;SDS011;28144;49.920;18.730;2022-10-16T07:15:53;13.60;;;8.30;;
42514;SDS011;28144;49.920;18.730;2022-10-16T07:18:19;17.07;;;7.90;;
42514;SDS011;28144;49.920;18.730;2022-10-16T07:20:45;13.70;;;7.53;;
42514;SDS011;28144;49.920;18.730;2022-10-16T07:23:10;11.17;;;7.40;;
42514;SDS011;28144;49.920;18.730;2022-10-16T07:25:37;15.47;;;8.10;;
42514;SDS011;28144;49.920;18.730;2022-10-16T07:28:04;13.02;;;7.40;;
42514;SDS011;28144;49.920;18.730;2022-10-16T07:30:29;16.58;;;7.40;;
42514;SDS011;28144;49.920;18.730;2022-10-16T07:32:55;15.57;;;8.63;;
42514;SDS011;28144;49.920;18.730;2022-10-16T07:35:21;15.47;;;8.57;;
42514;SDS011;28144;49.920;18.730;2022-10-16T07:37:46;19.13;;;10.53;;
42514;SDS011;28144;49.920;18.730;2022-10-16T07:40:12;22.43;;;9.70;;
42514;SDS011;28144;49.920;18.730;2022-10-16T07:42:38;14.35;;;10.07;;
42514;SDS011;28144;49.920;18.730;2022-10-16T07:45:04;19.15;;;9.93;;
42514;SDS011;28144;49.920;18.730;2022-10-16T07:47:30;16.65;;;9.45;;
42514;SDS011;28144;49.920;18.730;2022-10-16T07:49:56;17.67;;;9.53;;
42514;SDS011;28144;49.920;18.730;2022-10-16T07:52:21;13.63;;;8.77;;
42514;SDS011;28144;49.920;18.730;2022-10-16T07:54:47;15.00;;;8.17;;
42514;SDS011;28144;49.920;18.730;2022-10-16T07:57:13;19.97;;;8.30;;
42514;SDS011;28144;49.920;18.730;2022-10-16T07:59:44;11.88;;;7.32;;
42514;SDS011;28144;49.920;18.730;2022-10-16T08:04:36;9.05;;;6.88;;
42514;SDS011;28144;49.920;18.730;2022-10-16T08:07:02;12.30;;;8.83;;
42514;SDS011;28144;49.920;18.730;2022-10-16T08:09:28;13.23;;;7.75;;
42514;SDS011;28144;49.920;18.730;2022-10-16T08:11:53;15.47;;;8.63;;
42514;SDS011;28144;49.920;18.730;2022-10-16T08:14:19;20.53;;;12.17;;
42514;SDS011;28144;49.920;18.730;2022-10-16T08:16:45;15.20;;;8.47;;
42514;SDS011;28144;49.920;18.730;2022-10-16T08:19:10;12.07;;;6.77;;
42514;SDS011;28144;49.920;18.730;2022-10-16T08:21:36;12.83;;;7.07;;
42514;SDS011;28144;49.920;18.730;2022-10-16T08:24:02;13.97;;;6.93;;
42514;SDS011;28144;49.920;18.730;2022-10-16T08:26:30;13.07;;;7.10;;
42514;SDS011;28144;49.920;18.730;2022-10-16T08:28:55;12.15;;;6.57;;
42514;SDS011;28144;49.920;18.730;2022-10-16T08:31:21;14.70;;;7.63;;
42514;SDS011;28144;49.920;18.730;2022-10-16T08:33:47;11.07;;;6.90;;
42514;SDS011;28144;49.920;18.730;2022-10-16T08:36:14;22.83;;;7.03;;
42514;SDS011;28144;49.920;18.730;2022-10-16T08:38:40;10.68;;;6.43;;
42514;SDS011;28144;49.920;18.730;2022-10-16T08:44:31;10.90;;;6.32;;
42514;SDS011;28144;49.920;18.730;2022-10-16T08:47:38;10.93;;;6.57;;
42514;SDS011;28144;49.920;18.730;2022-10-16T08:49:59;16.45;;;6.38;;
42514;SDS011;28144;49.920;18.730;2022-10-16T08:52:29;8.75;;;6.47;;
42514;SDS011;28144;49.920;18.730;2022-10-16T08:54:57;11.82;;;6.45;;
42514;SDS011;28144;49.920;18.730;2022-10-16T08:57:23;12.60;;;6.60;;
42514;SDS011;28144;49.920;18.730;2022-10-16T08:59:52;16.90;;;6.47;;
42514;SDS011;28144;49.920;18.730;2022-10-16T09:07:50;10.23;;;6.13;;
42514;SDS011;28144;49.920;18.730;2022-10-16T09:10:31;11.90;;;5.87;;
42514;SDS011;28144;49.920;18.730;2022-10-16T09:13:14;9.32;;;5.90;;
42514;SDS011;28144;49.920;18.730;2022-10-16T09:16:33;10.70;;;6.07;;
42514;SDS011;28144;49.920;18.730;2022-10-16T09:21:41;10.98;;;6.80;;
42514;SDS011;28144;49.920;18.730;2022-10-16T09:31:40;11.35;;;7.35;;
42514;SDS011;28144;49.920;18.730;2022-10-16T09:34:08;9.80;;;7.10;;
42514;SDS011;28144;49.920;18.730;2022-10-16T09:36:57;8.95;;;6.30;;
42514;SDS011;28144;49.920;18.730;2022-10-16T09:39:24;10.70;;;6.45;;
42514;SDS011;28144;49.920;18.730;2022-10-16T09:41:50;9.55;;;6.60;;
42514;SDS011;28144;49.920;18.730;2022-10-16T09:44:21;13.27;;;6.15;;
42514;SDS011;28144;49.920;18.730;2022-10-16T09:49:27;8.07;;;6.75;;
42514;SDS011;28144;49.920;18.730;2022-10-16T09:52:13;14.68;;;6.65;;
42514;SDS011;28144;49.920;18.730;2022-10-16T09:54:50;12.55;;;6.05;;
42514;SDS011;28144;49.920;18.730;2022-10-16T09:57:20;9.55;;;5.72;;
42514;SDS011;28144;49.920;18.730;2022-10-16T09:59:47;10.18;;;6.43;;
42514;SDS011;28144;49.920;18.730;2022-10-16T10:02:14;7.63;;;5.82;;
42514;SDS011;28144;49.920;18.730;2022-10-16T10:04:42;11.40;;;5.82;;
42514;SDS011;28144;49.920;18.730;2022-10-16T10:07:17;7.47;;;6.05;;
42514;SDS011;28144;49.920;18.730;2022-10-16T10:09:44;15.60;;;6.65;;
42514;SDS011;28144;49.920;18.730;2022-10-16T10:12:17;9.52;;;6.10;;
42514;SDS011;28144;49.920;18.730;2022-10-16T10:14:45;11.55;;;6.45;;
42514;SDS011;28144;49.920;18.730;2022-10-16T11:05:21;10.63;;;6.20;;
42514;SDS011;28144;49.920;18.730;2022-10-16T11:08:17;9.52;;;6.00;;
42514;SDS011;28144;49.920;18.730;2022-10-16T11:16:17;13.70;;;6.20;;
42514;SDS011;28144;49.920;18.730;2022-10-16T11:18:48;10.02;;;6.32;;
42514;SDS011;28144;49.920;18.730;2022-10-16T11:21:18;14.45;;;7.20;;
42514;SDS011;28144;49.920;18.730;2022-10-16T11:24:01;11.63;;;6.25;;
42514;SDS011;28144;49.920;18.730;2022-10-16T11:26:35;11.93;;;7.70;;
42514;SDS011;28144;49.920;18.730;2022-10-16T11:29:05;10.70;;;6.30;;
42514;SDS011;28144;49.920;18.730;2022-10-16T11:31:38;12.88;;;7.40;;
42514;SDS011;28144;49.920;18.730;2022-10-16T11:34:13;13.32;;;8.73;;
42514;SDS011;28144;49.920;18.730;2022-10-16T11:37:03;11.07;;;7.88;;
42514;SDS011;28144;49.920;18.730;2022-10-16T11:39:35;15.75;;;7.20;;
42514;SDS011;28144;49.920;18.730;2022-10-16T11:48:14;12.57;;;7.73;;
42514;SDS011;28144;49.920;18.730;2022-10-16T11:53:13;17.35;;;13.60;;
42514;SDS011;28144;49.920;18.730;2022-10-16T11:55:44;11.13;;;6.25;;
42514;SDS011;28144;49.920;18.730;2022-10-16T12:00:40;10.13;;;5.88;;
42514;SDS011;28144;49.920;18.730;2022-10-16T12:03:27;7.10;;;5.55;;
42514;SDS011;28144;49.920;18.730;2022-10-16T12:06:13;11.25;;;6.65;;
42514;SDS011;28144;49.920;18.730;2022-10-16T12:08:45;7.95;;;6.10;;
42514;SDS011;28144;49.920;18.730;2022-10-16T12:11:23;8.90;;;6.28;;
42514;SDS011;28144;49.920;18.730;2022-10-16T12:16:57;11.43;;;6.32;;
42514;SDS011;28144;49.920;18.730;2022-10-16T12:19:25;11.25;;;6.70;;
42514;SDS011;28144;49.920;18.730;2022-10-16T12:21:54;11.50;;;6.85;;
42514;SDS011;28144;49.920;18.730;2022-10-16T12:26:59;10.80;;;6.55;;
42514;SDS011;28144;49.920;18.730;2022-10-16T12:32:38;12.30;;;7.53;;
42514;SDS011;28144;49.920;18.730;2022-10-16T12:35:05;12.70;;;7.55;;
42514;SDS011;28144;49.920;18.730;2022-10-16T12:37:42;11.35;;;7.35;;
42514;SDS011;28144;49.920;18.730;2022-10-16T12:40:13;9.57;;;6.72;;
42514;SDS011;28144;49.920;18.730;2022-10-16T12:42:40;14.85;;;7.25;;
42514;SDS011;28144;49.920;18.730;2022-10-16T12:45:28;9.40;;;6.75;;
42514;SDS011;28144;49.920;18.730;2022-10-16T12:47:59;43.63;;;22.92;;
42514;SDS011;28144;49.920;18.730;2022-10-16T12:50:28;12.35;;;7.00;;
42514;SDS011;28144;49.920;18.730;2022-10-16T12:53:03;14.18;;;7.47;;
42514;SDS011;28144;49.920;18.730;2022-10-16T12:55:49;16.50;;;10.52;;
42514;SDS011;28144;49.920;18.730;2022-10-16T13:17:16;11.23;;;6.60;;
42514;SDS011;28144;49.920;18.730;2022-10-16T13:22:35;12.45;;;8.02;;
42514;SDS011;28144;49.920;18.730;2022-10-16T13:25:17;12.70;;;7.15;;
42514;SDS011;28144;49.920;18.730;2022-10-16T13:28:08;10.57;;;7.60;;
42514;SDS011;28144;49.920;18.730;2022-10-16T13:30:39;9.40;;;6.30;;
42514;SDS011;28144;49.920;18.730;2022-10-16T13:33:10;9.43;;;6.85;;
42514;SDS011;28144;49.920;18.730;2022-10-16T13:35:46;17.17;;;10.82;;
42514;SDS011;28144;49.920;18.730;2022-10-16T13:38:15;12.43;;;7.30;;
42514;SDS011;28144;49.920;18.730;2022-10-16T13:43:22;16.48;;;10.75;;
42514;SDS011;28144;49.920;18.730;2022-10-16T13:45:54;14.13;;;9.13;;
42514;SDS011;28144;49.920;18.730;2022-10-16T13:48:24;13.40;;;7.43;;
42514;SDS011;28144;49.920;18.730;2022-10-16T13:53:26;12.00;;;7.30;;
42514;SDS011;28144;49.920;18.730;2022-10-16T13:55:51;17.35;;;7.00;;
42514;SDS011;28144;49.920;18.730;2022-10-16T13:58:17;16.10;;;7.60;;
42514;SDS011;28144;49.920;18.730;2022-10-16T14:03:38;15.50;;;6.90;;
42514;SDS011;28144;49.920;18.730;2022-10-16T14:08:33;11.15;;;8.05;;
42514;SDS011;28144;49.920;18.730;2022-10-16T14:10:59;17.65;;;11.68;;
42514;SDS011;28144;49.920;18.730;2022-10-16T14:13:29;15.05;;;8.32;;
42514;SDS011;28144;49.920;18.730;2022-10-16T14:18:35;11.80;;;7.38;;
42514;SDS011;28144;49.920;18.730;2022-10-16T14:21:06;11.10;;;8.05;;
42514;SDS011;28144;49.920;18.730;2022-10-16T14:28:36;14.45;;;10.02;;
42514;SDS011;28144;49.920;18.730;2022-10-16T14:31:16;9.63;;;7.90;;
42514;SDS011;28144;49.920;18.730;2022-10-16T14:33:57;11.98;;;8.25;;
42514;SDS011;28144;49.920;18.730;2022-10-16T14:36:23;10.77;;;7.20;;
42514;SDS011;28144;49.920;18.730;2022-10-16T14:39:16;9.40;;;8.07;;
42514;SDS011;28144;49.920;18.730;2022-10-16T14:41:44;14.65;;;7.43;;
42514;SDS011;28144;49.920;18.730;2022-10-16T14:44:12;9.13;;;7.35;;
42514;SDS011;28144;49.920;18.730;2022-10-16T14:46:39;14.68;;;8.02;;
42514;SDS011;28144;49.920;18.730;2022-10-16T14:51:35;14.45;;;8.20;;
42514;SDS011;28144;49.920;18.730;2022-10-16T14:54:01;14.52;;;8.60;;
42514;SDS011;28144;49.920;18.730;2022-10-16T14:58:54;15.00;;;8.27;;
42514;SDS011;28144;49.920;18.730;2022-10-16T15:01:20;14.02;;;7.97;;
42514;SDS011;28144;49.920;18.730;2022-10-16T15:03:46;11.13;;;7.83;;
42514;SDS011;28144;49.920;18.730;2022-10-16T15:06:15;17.10;;;8.48;;
42514;SDS011;28144;49.920;18.730;2022-10-16T15:08:41;13.25;;;9.73;;
42514;SDS011;28144;49.920;18.730;2022-10-16T15:11:16;13.35;;;9.55;;
42514;SDS011;28144;49.920;18.730;2022-10-16T15:13:43;15.98;;;9.10;;
42514;SDS011;28144;49.920;18.730;2022-10-16T15:16:14;15.00;;;9.00;;
42514;SDS011;28144;49.920;18.730;2022-10-16T15:18:40;16.90;;;9.32;;
42514;SDS011;28144;49.920;18.730;2022-10-16T15:21:06;14.02;;;9.35;;
42514;SDS011;28144;49.920;18.730;2022-10-16T15:23:32;22.75;;;12.23;;
42514;SDS011;28144;49.920;18.730;2022-10-16T15:25:58;22.83;;;10.82;;
42514;SDS011;28144;49.920;18.730;2022-10-16T15:28:25;37.97;;;20.02;;
42514;SDS011;28144;49.920;18.730;2022-10-16T15:30:51;24.27;;;13.98;;
42514;SDS011;28144;49.920;18.730;2022-10-16T15:33:19;19.17;;;9.32;;
42514;SDS011;28144;49.920;18.730;2022-10-16T15:35:50;22.17;;;11.02;;
42514;SDS011;28144;49.920;18.730;2022-10-16T15:38:17;15.23;;;9.98;;
42514;SDS011;28144;49.920;18.730;2022-10-16T15:40:45;13.95;;;9.40;;
42514;SDS011;28144;49.920;18.730;2022-10-16T15:43:11;16.65;;;9.60;;
42514;SDS011;28144;49.920;18.730;2022-10-16T15:45:37;15.88;;;9.23;;
42514;SDS011;28144;49.920;18.730;2022-10-16T15:48:02;11.50;;;9.20;;
42514;SDS011;28144;49.920;18.730;2022-10-16T15:50:29;13.30;;;9.20;;
42514;SDS011;28144;49.920;18.730;2022-10-16T15:52:56;12.75;;;9.45;;
42514;SDS011;28144;49.920;18.730;2022-10-16T15:55:21;13.43;;;9.80;;
42514;SDS011;28144;49.920;18.730;2022-10-16T15:57:47;15.13;;;10.57;;
42514;SDS011;28144;49.920;18.730;2022-10-16T16:00:14;22.63;;;14.40;;
42514;SDS011;28144;49.920;18.730;2022-10-16T16:02:43;20.15;;;10.73;;
42514;SDS011;28144;49.920;18.730;2022-10-16T16:05:10;23.52;;;16.23;;
42514;SDS011;28144;49.920;18.730;2022-10-16T16:07:37;34.13;;;19.27;;
42514;SDS011;28144;49.920;18.730;2022-10-16T16:10:04;42.00;;;22.17;;
42514;SDS011;28144;49.920;18.730;2022-10-16T16:12:32;22.17;;;15.45;;
42514;SDS011;28144;49.920;18.730;2022-10-16T16:17:24;19.30;;;11.80;;
42514;SDS011;28144;49.920;18.730;2022-10-16T16:19:50;20.55;;;12.75;;
42514;SDS011;28144;49.920;18.730;2022-10-16T16:22:16;21.15;;;13.88;;
42514;SDS011;28144;49.920;18.730;2022-10-16T16:24:42;15.63;;;12.18;;
42514;SDS011;28144;49.920;18.730;2022-10-16T16:27:07;22.37;;;14.30;;
42514;SDS011;28144;49.920;18.730;2022-10-16T16:29:33;19.40;;;11.77;;
42514;SDS011;28144;49.920;18.730;2022-10-16T16:31:59;21.47;;;12.77;;
42514;SDS011;28144;49.920;18.730;2022-10-16T16:36:52;23.88;;;12.88;;
42514;SDS011;28144;49.920;18.730;2022-10-16T16:39:18;25.05;;;13.80;;
42514;SDS011;28144;49.920;18.730;2022-10-16T16:41:44;16.63;;;12.53;;
42514;SDS011;28144;49.920;18.730;2022-10-16T16:46:38;21.80;;;14.20;;
42514;SDS011;28144;49.920;18.730;2022-10-16T16:49:05;18.75;;;12.10;;
42514;SDS011;28144;49.920;18.730;2022-10-16T16:53:57;15.50;;;10.18;;
42514;SDS011;28144;49.920;18.730;2022-10-16T16:56:23;25.97;;;18.67;;
42514;SDS011;28144;49.920;18.730;2022-10-16T17:01:16;19.73;;;13.05;;
42514;SDS011;28144;49.920;18.730;2022-10-16T17:03:43;16.92;;;14.05;;
42514;SDS011;28144;49.920;18.730;2022-10-16T17:06:10;26.50;;;17.77;;
42514;SDS011;28144;49.920;18.730;2022-10-16T17:08:37;42.67;;;25.45;;
42514;SDS011;28144;49.920;18.730;2022-10-16T17:11:03;102.90;;;51.45;;
42514;SDS011;28144;49.920;18.730;2022-10-16T17:15:56;91.30;;;47.83;;
42514;SDS011;28144;49.920;18.730;2022-10-16T17:18:23;76.47;;;40.57;;
42514;SDS011;28144;49.920;18.730;2022-10-16T17:20:49;68.93;;;38.95;;
42514;SDS011;28144;49.920;18.730;2022-10-16T17:25:42;33.63;;;21.27;;
42514;SDS011;28144;49.920;18.730;2022-10-16T17:28:08;28.27;;;17.30;;
42514;SDS011;28144;49.920;18.730;2022-10-16T17:30:38;19.80;;;13.82;;
42514;SDS011;28144;49.920;18.730;2022-10-16T17:33:06;22.75;;;14.07;;
42514;SDS011;28144;49.920;18.730;2022-10-16T17:35:39;25.00;;;13.88;;
42514;SDS011;28144;49.920;18.730;2022-10-16T18:12:53;36.72;;;18.73;;